Guerneville, California
Current Conditions -  °F | °C
As of 3:53 PM on Monday 24 Nov 2014 (Local Time) from KSTS Reporting Station
Clear Clear  
Wind Chill: 68°   Ceiling: Unl
Heat Index: 68°   Visibility: 10mi
Dew Point: 43°   Wind: 3mph
Humidity: 40%   Direction: 150°SSE
Pressure: 30.32"   Gusts: NA
Location:  38.5°N, 123°W
Report Text: KSTS 242353Z 15003KT 10SM CLR 20/06 A3032 RMK AO2 SLP261 T02000061 10200 20111 55012
Loading
Personal Weather Stations






























Interactive Weather Map New forecast layout! Learn more

10-Day Weather Forecast

Advertisements
Track Severe Weather on mobile